RYR237 EPKK-EPGD
Flight info
| Callsign | RYR237 |
|---|---|
| Flight time | 1h 0m |
| Altitude | 36000 |
| Route | NAVUR6J NAVUR N744 OVBOR N133 GRUDA Z95 OSLOG OSLOG5T |
| Aircraft | B38M/M-SDE1FGHILORVWXY/HB1 |
Departure
| Time | 2026-04-30 17:48 |
|---|---|
| Airport | Kraków John Paul II International Airport (EPKK) |
Arrival
| Time | 2026-04-30 18:48 |
|---|---|
| Airport | Gdańsk Lech Wałęsa Airport (EPGD) |
| Time | Latitude | Longitude | Altitude | Speed | Heading |
|---|---|---|---|---|---|
| 2026-04-30 17:39 | 50.07472 | 19.80078 | 791 ft | 0 kts | 168° |
| 2026-04-30 17:42 | 50.07448 | 19.80086 | 791 ft | 1 kts | 168° |
| 2026-04-30 17:42 | 50.07427 | 19.80095 | 791 ft | 3 kts | 159° |
| 2026-04-30 17:43 | 50.07417 | 19.80208 | 790 ft | 9 kts | 80° |
| 2026-04-30 17:44 | 50.07515 | 19.80398 | 790 ft | 7 kts | 18° |
| 2026-04-30 17:44 | 50.07694 | 19.80381 | 790 ft | 10 kts | 347° |
| 2026-04-30 17:46 | 50.07999 | 19.80242 | 789 ft | 5 kts | 291° |
| 2026-04-30 17:47 | 50.07571 | 19.77028 | 929 ft | 128 kts | 259° |
| 2026-04-30 17:48 | 50.06749 | 19.71078 | 1916 ft | 158 kts | 256° |
| 2026-04-30 17:48 | 50.06119 | 19.65383 | 2838 ft | 199 kts | 288° |
| 2026-04-30 17:49 | 50.11772 | 19.63978 | 4483 ft | 260 kts | 12° |
| 2026-04-30 17:50 | 50.19127 | 19.66169 | 7167 ft | 278 kts | 10° |
| 2026-04-30 17:51 | 50.24923 | 19.67901 | 9242 ft | 287 kts | 10° |
| 2026-04-30 17:52 | 50.31049 | 19.69735 | 10781 ft | 317 kts | 10° |
| 2026-04-30 17:53 | 50.42593 | 19.73203 | 13693 ft | 350 kts | 11° |
| 2026-04-30 17:54 | 50.52380 | 19.76156 | 16255 ft | 365 kts | 11° |
| 2026-04-30 17:55 | 50.62545 | 19.79237 | 18584 ft | 379 kts | 11° |
| 2026-04-30 17:56 | 50.73068 | 19.82441 | 20691 ft | 391 kts | 11° |
| 2026-04-30 17:57 | 50.81181 | 19.84920 | 22152 ft | 400 kts | 11° |
| 2026-04-30 17:58 | 50.89433 | 19.87452 | 23506 ft | 409 kts | 11° |
| 2026-04-30 17:59 | 51.00720 | 19.91198 | 25184 ft | 420 kts | 21° |
| 2026-04-30 18:00 | 51.10818 | 20.00670 | 26719 ft | 429 kts | 8° |
| 2026-04-30 18:00 | 51.19470 | 19.97462 | 27783 ft | 434 kts | 338° |
| 2026-04-30 18:01 | 51.25186 | 19.94193 | 28441 ft | 440 kts | 343° |
| 2026-04-30 18:02 | 51.34015 | 19.89734 | 29371 ft | 447 kts | 341° |
| 2026-04-30 18:02 | 51.42967 | 19.85113 | 30251 ft | 454 kts | 341° |
| 2026-04-30 18:03 | 51.52006 | 19.80352 | 31093 ft | 461 kts | 342° |
| 2026-04-30 18:04 | 51.61221 | 19.75531 | 31890 ft | 467 kts | 341° |
| 2026-04-30 18:05 | 51.73549 | 19.69039 | 33343 ft | 465 kts | 341° |
| 2026-04-30 18:06 | 51.85855 | 19.62779 | 34670 ft | 462 kts | 342° |
| 2026-04-30 18:07 | 51.98157 | 19.56731 | 35890 ft | 461 kts | 342° |
| 2026-04-30 18:08 | 52.07174 | 19.52274 | 35999 ft | 446 kts | 343° |
| 2026-04-30 18:10 | 52.30930 | 19.40474 | 35992 ft | 446 kts | 342° |
| 2026-04-30 18:11 | 52.51706 | 19.30046 | 35996 ft | 446 kts | 342° |
| 2026-04-30 18:13 | 52.66655 | 19.23320 | 36000 ft | 446 kts | 345° |
| 2026-04-30 18:14 | 52.81660 | 19.16933 | 35127 ft | 433 kts | 345° |
| 2026-04-30 18:15 | 52.90434 | 19.13172 | 33124 ft | 429 kts | 345° |
| 2026-04-30 18:15 | 52.99213 | 19.09392 | 29951 ft | 423 kts | 345° |
| 2026-04-30 18:16 | 53.04854 | 19.06951 | 26602 ft | 423 kts | 345° |
| 2026-04-30 18:16 | 53.10183 | 19.04642 | 26825 ft | 385 kts | 345° |
| 2026-04-30 18:17 | 53.12805 | 19.03500 | 26985 ft | 394 kts | 345° |
| 2026-04-30 18:17 | 53.15487 | 19.02333 | 27144 ft | 403 kts | 345° |
| 2026-04-30 18:17 | 53.21058 | 18.99907 | 27213 ft | 426 kts | 345° |
| 2026-04-30 18:18 | 53.23918 | 18.98659 | 26770 ft | 425 kts | 345° |
| 2026-04-30 18:18 | 53.26765 | 18.97415 | 25970 ft | 417 kts | 345° |
| 2026-04-30 18:18 | 53.29543 | 18.96198 | 25471 ft | 416 kts | 345° |
| 2026-04-30 18:18 | 53.32315 | 18.94982 | 24957 ft | 402 kts | 345° |
| 2026-04-30 18:19 | 53.34953 | 18.93825 | 24431 ft | 383 kts | 345° |
| 2026-04-30 18:19 | 53.37475 | 18.92717 | 23895 ft | 367 kts | 345° |
| 2026-04-30 18:19 | 53.39900 | 18.91649 | 23361 ft | 354 kts | 345° |
| 2026-04-30 18:19 | 53.42258 | 18.90610 | 22838 ft | 349 kts | 345° |
| 2026-04-30 18:20 | 53.44609 | 18.89573 | 22293 ft | 348 kts | 345° |
| 2026-04-30 18:20 | 53.46946 | 18.88541 | 21634 ft | 345 kts | 345° |
| 2026-04-30 18:20 | 53.49253 | 18.87521 | 20982 ft | 341 kts | 345° |
| 2026-04-30 18:20 | 53.51526 | 18.86515 | 20428 ft | 336 kts | 345° |
| 2026-04-30 18:21 | 53.53786 | 18.85514 | 19888 ft | 335 kts | 345° |
| 2026-04-30 18:21 | 53.56028 | 18.84519 | 19322 ft | 332 kts | 345° |
| 2026-04-30 18:21 | 53.58255 | 18.83531 | 18780 ft | 329 kts | 345° |
| 2026-04-30 18:21 | 53.60460 | 18.82550 | 18231 ft | 327 kts | 345° |
| 2026-04-30 18:22 | 53.62649 | 18.81576 | 17653 ft | 324 kts | 345° |
| 2026-04-30 18:22 | 53.66966 | 18.79652 | 16408 ft | 317 kts | 345° |
| 2026-04-30 18:22 | 53.69087 | 18.78705 | 15783 ft | 314 kts | 345° |
| 2026-04-30 18:23 | 53.71192 | 18.77765 | 15158 ft | 311 kts | 345° |
| 2026-04-30 18:23 | 53.73279 | 18.76831 | 14533 ft | 309 kts | 345° |
| 2026-04-30 18:23 | 53.75346 | 18.75905 | 13909 ft | 306 kts | 345° |
| 2026-04-30 18:23 | 53.77428 | 18.75367 | 13297 ft | 302 kts | 360° |
| 2026-04-30 18:24 | 53.81560 | 18.75587 | 12487 ft | 291 kts | 2° |
| 2026-04-30 18:24 | 53.83613 | 18.75707 | 12037 ft | 300 kts | 1° |
| 2026-04-30 18:24 | 53.85713 | 18.75792 | 11606 ft | 301 kts | 1° |
| 2026-04-30 18:25 | 53.87776 | 18.75881 | 11551 ft | 292 kts | 1° |
| 2026-04-30 18:25 | 53.91888 | 18.76086 | 11552 ft | 295 kts | 1° |
| 2026-04-30 18:25 | 53.93945 | 18.76185 | 11549 ft | 296 kts | 1° |
| 2026-04-30 18:26 | 53.98051 | 18.76381 | 11548 ft | 295 kts | 1° |
| 2026-04-30 18:26 | 54.00107 | 18.76481 | 11549 ft | 295 kts | 1° |
| 2026-04-30 18:26 | 54.02162 | 18.76580 | 11550 ft | 295 kts | 1° |
| 2026-04-30 18:27 | 54.06270 | 18.76779 | 11551 ft | 295 kts | 1° |
| 2026-04-30 18:27 | 54.08289 | 18.76877 | 11379 ft | 283 kts | 1° |
| 2026-04-30 18:28 | 54.11842 | 18.75569 | 10935 ft | 262 kts | 321° |
| 2026-04-30 18:28 | 54.13034 | 18.73241 | 10760 ft | 261 kts | 296° |
| 2026-04-30 18:28 | 54.14462 | 18.67666 | 10340 ft | 258 kts | 292° |
| 2026-04-30 18:29 | 54.15154 | 18.64914 | 10082 ft | 250 kts | 300° |
| 2026-04-30 18:29 | 54.19796 | 18.62618 | 9515 ft | 253 kts | 21° |
| 2026-04-30 18:30 | 54.22357 | 18.65023 | 8618 ft | 256 kts | 52° |
| 2026-04-30 18:30 | 54.23149 | 18.70759 | 7492 ft | 254 kts | 76° |
| 2026-04-30 18:31 | 54.23854 | 18.73543 | 6958 ft | 253 kts | 53° |
| 2026-04-30 18:31 | 54.26633 | 18.76591 | 5774 ft | 228 kts | 9° |
| 2026-04-30 18:32 | 54.29374 | 18.75879 | 4603 ft | 173 kts | 330° |
| 2026-04-30 18:32 | 54.30299 | 18.74756 | 4551 ft | 164 kts | 317° |
| 2026-04-30 18:32 | 54.31556 | 18.71735 | 4550 ft | 154 kts | 294° |
| 2026-04-30 18:33 | 54.31982 | 18.70045 | 4516 ft | 156 kts | 292° |
| 2026-04-30 18:33 | 54.32790 | 18.66691 | 4034 ft | 144 kts | 293° |
| 2026-04-30 18:33 | 54.33191 | 18.65119 | 4189 ft | 144 kts | 292° |
| 2026-04-30 18:34 | 54.33595 | 18.63480 | 3960 ft | 154 kts | 291° |
| 2026-04-30 18:34 | 54.34406 | 18.60174 | 2893 ft | 150 kts | 290° |
| 2026-04-30 18:34 | 54.34820 | 18.58545 | 2448 ft | 149 kts | 293° |
| 2026-04-30 18:35 | 54.35201 | 18.56895 | 1892 ft | 149 kts | 290° |
| 2026-04-30 18:35 | 54.35598 | 18.55289 | 1502 ft | 147 kts | 293° |
| 2026-04-30 18:35 | 54.36003 | 18.53679 | 1232 ft | 146 kts | 293° |
| 2026-04-30 18:36 | 54.36551 | 18.51475 | 990 ft | 131 kts | 293° |
| 2026-04-30 18:36 | 54.36616 | 18.51206 | 1161 ft | 119 kts | 291° |
| 2026-04-30 18:36 | 54.37227 | 18.48848 | 1557 ft | 110 kts | 295° |
| 2026-04-30 18:37 | 54.37599 | 18.47587 | 1710 ft | 118 kts | 298° |
| 2026-04-30 18:37 | 54.37945 | 18.46210 | 2004 ft | 140 kts | 287° |
| 2026-04-30 18:37 | 54.38274 | 18.44495 | 2317 ft | 159 kts | 286° |
| 2026-04-30 18:37 | 54.38087 | 18.42579 | 2578 ft | 183 kts | 241° |
| 2026-04-30 18:38 | 54.36939 | 18.41033 | 2581 ft | 248 kts | 197° |
| 2026-04-30 18:38 | 54.35170 | 18.41039 | 2571 ft | 255 kts | 160° |
| 2026-04-30 18:38 | 54.33811 | 18.42789 | 2566 ft | 242 kts | 125° |
| 2026-04-30 18:38 | 54.33068 | 18.45297 | 2550 ft | 230 kts | 113° |
| 2026-04-30 18:39 | 54.32416 | 18.47725 | 2528 ft | 219 kts | 117° |
| 2026-04-30 18:39 | 54.31707 | 18.49929 | 2530 ft | 210 kts | 121° |
| 2026-04-30 18:39 | 54.30959 | 18.52082 | 2533 ft | 211 kts | 121° |
| 2026-04-30 18:39 | 54.30221 | 18.54238 | 2540 ft | 210 kts | 120° |
| 2026-04-30 18:40 | 54.29490 | 18.56402 | 2529 ft | 210 kts | 120° |
| 2026-04-30 18:40 | 54.28760 | 18.58563 | 2536 ft | 210 kts | 120° |
| 2026-04-30 18:40 | 54.28029 | 18.60722 | 2530 ft | 210 kts | 120° |
| 2026-04-30 18:40 | 54.27297 | 18.62880 | 2530 ft | 210 kts | 120° |
| 2026-04-30 18:41 | 54.26566 | 18.65035 | 2548 ft | 209 kts | 120° |
| 2026-04-30 18:41 | 54.26008 | 18.67304 | 2556 ft | 210 kts | 90° |
| 2026-04-30 18:41 | 54.26321 | 18.69673 | 2566 ft | 195 kts | 67° |
| 2026-04-30 18:41 | 54.26737 | 18.71731 | 2546 ft | 173 kts | 74° |
| 2026-04-30 18:42 | 54.27024 | 18.73698 | 2547 ft | 170 kts | 77° |
| 2026-04-30 18:42 | 54.27994 | 18.77179 | 2554 ft | 169 kts | 32° |
| 2026-04-30 18:42 | 54.29100 | 18.77611 | 2556 ft | 168 kts | 353° |
| 2026-04-30 18:45 | 54.33941 | 18.62097 | 2138 ft | 124 kts | 292° |
| 2026-04-30 18:45 | 54.34258 | 18.60815 | 1763 ft | 118 kts | 292° |
| 2026-04-30 18:45 | 54.34590 | 18.59469 | 1675 ft | 129 kts | 292° |
| 2026-04-30 18:46 | 54.34960 | 18.57970 | 1606 ft | 140 kts | 292° |
| 2026-04-30 18:46 | 54.35342 | 18.56421 | 1444 ft | 143 kts | 292° |
| 2026-04-30 18:46 | 54.35721 | 18.54882 | 1269 ft | 143 kts | 292° |
| 2026-04-30 18:46 | 54.36106 | 18.53317 | 1075 ft | 142 kts | 292° |
| 2026-04-30 18:47 | 54.36492 | 18.51752 | 876 ft | 142 kts | 292° |
| 2026-04-30 18:47 | 54.36877 | 18.50191 | 632 ft | 142 kts | 292° |
| 2026-04-30 18:47 | 54.37186 | 18.48935 | 489 ft | 140 kts | 292° |
| 2026-04-30 18:47 | 54.37527 | 18.47551 | 464 ft | 107 kts | 293° |
| 2026-04-30 18:48 | 54.37745 | 18.46664 | 453 ft | 57 kts | 293° |
| 2026-04-30 18:48 | 54.37865 | 18.46182 | 448 ft | 31 kts | 293° |
| 2026-04-30 18:48 | 54.37955 | 18.45919 | 448 ft | 23 kts | 310° |
| 2026-04-30 18:48 | 54.38068 | 18.45743 | 434 ft | 16 kts | 321° |
| 2026-04-30 18:49 | 54.38085 | 18.45721 | 439 ft | 0 kts | 322° |
| 2026-04-30 18:49 | 54.38086 | 18.45720 | 439 ft | 1 kts | 322° |
| 2026-04-30 18:49 | 54.38108 | 18.45707 | 432 ft | 7 kts | 353° |
| 2026-04-30 18:50 | 54.38135 | 18.45734 | 436 ft | 3 kts | 66° |
| 2026-04-30 18:50 | 54.38135 | 18.45797 | 438 ft | 8 kts | 102° |
| 2026-04-30 18:50 | 54.38111 | 18.45906 | 446 ft | 12 kts | 115° |
| 2026-04-30 18:50 | 54.38112 | 18.46050 | 448 ft | 9 kts | 58° |
| 2026-04-30 18:51 | 54.38166 | 18.46106 | 448 ft | 8 kts | 33° |
| 2026-04-30 18:51 | 54.38182 | 18.46174 | 448 ft | 7 kts | 90° |
| 2026-04-30 18:51 | 54.38192 | 18.46214 | 449 ft | 3 kts | 25° |
| 2026-04-30 18:51 | 54.38211 | 18.46230 | 449 ft | 0 kts | 25° |